Time;durP1;ratioP1;P1;durP2;ratioP2;P2;SDS_P1;SDS_P2;PMS_P1;PMS_P2;Temp;Humidity;BMP_temperature;BMP_pressure;BME280_temperature;BME280_humidity;BME280_pressure;Samples;Min_cycle;Max_cycle;Signal;HPM_P1;HPM_P2
2022/03/28 00:00:51;;;;;;;6.53;2.35;;;;;;;;;;4990570;28;20414;-71
2022/03/28 00:03:23;;;;;;;5.38;1.58;;;;;;;;;;4990264;28;20056;-72
2022/03/28 00:05:55;;;;;;;7.05;1.63;;;;;;;;;;4991023;28;20058;-71
2022/03/28 00:08:27;;;;;;;3.75;1.63;;;;;;;;;;4970279;28;20055;-71
2022/03/28 00:10:59;;;;;;;2.90;1.48;;;;;;;;;;4977099;28;20050;-72
2022/03/28 00:13:30;;;;;;;8.20;1.65;;;;;;;;;;4971243;28;20046;-72
2022/03/28 00:16:01;;;;;;;6.07;2.00;;;;;;;;;;4960506;28;20407;-73
2022/03/28 00:18:32;;;;;;;5.00;1.70;;;;;;;;;;4946604;28;20066;-72
2022/03/28 00:21:04;;;;;;;3.53;1.45;;;;;;;;;;4938887;28;20051;-72
2022/03/28 00:23:35;;;;;;;8.63;1.35;;;;;;;;;;4971274;28;20063;-73
2022/03/28 00:26:06;;;;;;;6.38;1.80;;;;;;;;;;4971067;28;20047;-73
2022/03/28 00:28:36;;;;;;;3.88;1.60;;;;;;;;;;4982078;28;20089;-73
2022/03/28 00:31:07;;;;;;;4.28;1.60;;;;;;;;;;4990574;28;20082;-73
2022/03/28 00:33:38;;;;;;;4.80;1.50;;;;;;;;;;4990552;28;20529;-73
2022/03/28 00:36:09;;;;;;;3.97;1.95;;;;;;;;;;4990387;28;20529;-73
2022/03/28 00:38:40;;;;;;;3.70;1.38;;;;;;;;;;5012620;28;20531;-72
2022/03/28 00:41:10;;;;;;;3.75;1.65;;;;;;;;;;5009627;28;20053;-72
2022/03/28 00:43:55;;;;;;;8.90;2.88;;;;;;;;;;5009981;28;20069;-72
2022/03/28 00:46:27;;;;;;;3.40;1.65;;;;;;;;;;5016165;28;20049;-72
2022/03/28 00:48:57;;;;;;;3.10;2.30;;;;;;;;;;5003541;28;20061;-72
2022/03/28 00:51:28;;;;;;;5.93;1.90;;;;;;;;;;5011916;28;20050;-72
2022/03/28 00:54:00;;;;;;;8.18;1.60;;;;;;;;;;4993687;28;20414;-72
2022/03/28 00:56:31;;;;;;;8.75;1.90;;;;;;;;;;4993114;28;20054;-72
2022/03/28 00:59:02;;;;;;;5.30;1.95;;;;;;;;;;5009756;28;20084;-72
2022/03/28 01:01:32;;;;;;;4.70;1.70;;;;;;;;;;4973266;28;20046;-72
2022/03/28 01:04:08;;;;;;;4.47;1.60;;;;;;;;;;4989309;28;20043;-71
2022/03/28 01:06:39;;;;;;;4.35;1.95;;;;;;;;;;4990243;28;20062;-72
2022/03/28 01:09:10;;;;;;;5.45;1.70;;;;;;;;;;4989570;28;20058;-72
2022/03/28 01:11:42;;;;;;;4.95;1.70;;;;;;;;;;4989683;28;20059;-72
2022/03/28 01:14:12;;;;;;;;;;;;;;;;;;4989990;28;20054;-72
2022/03/28 01:19:31;;;;;;;6.85;2.25;;;;;;;;;;4988806;28;20529;-72
2022/03/28 01:22:02;;;;;;;7.63;2.05;;;;;;;;;;4989562;28;20057;-72
2022/03/28 01:24:34;;;;;;;5.22;1.92;;;;;;;;;;4989470;28;20054;-72
2022/03/28 01:27:07;;;;;;;4.95;2.00;;;;;;;;;;4969743;28;20057;-72
2022/03/28 01:29:37;;;;;;;;;;;;;;;;;;4989406;28;20378;-72
2022/03/28 01:32:08;;;;;;;9.55;3.58;;;;;;;;;;4992759;28;19921;-72
2022/03/28 01:34:39;;;;;;;7.53;2.97;;;;;;;;;;4960343;28;20057;-72
2022/03/28 01:37:09;;;;;;;9.32;3.08;;;;;;;;;;5009126;28;20606;-72
2022/03/28 01:39:40;;;;;;;6.97;3.08;;;;;;;;;;5008607;28;20050;-72
2022/03/28 01:42:10;;;;;;;9.55;3.22;;;;;;;;;;4975552;28;20058;-72
2022/03/28 01:44:41;;;;;;;8.95;3.80;;;;;;;;;;4969716;28;20414;-71
2022/03/28 01:47:11;;;;;;;9.60;3.72;;;;;;;;;;4950477;29;20051;-72
2022/03/28 01:49:42;;;;;;;11.23;3.65;;;;;;;;;;4912075;29;20060;-72
2022/03/28 01:52:12;;;;;;;15.98;3.85;;;;;;;;;;4877798;29;20060;-72
2022/03/28 01:54:43;;;;;;;11.07;3.75;;;;;;;;;;4893848;29;20060;-72
2022/03/28 01:57:14;;;;;;;13.25;3.95;;;;;;;;;;4912045;29;20052;-72
2022/03/28 01:59:44;;;;;;;15.75;4.03;;;;;;;;;;4881126;29;20056;-72
2022/03/28 02:02:15;;;;;;;15.15;4.05;;;;;;;;;;4912041;29;20064;-72
2022/03/28 02:04:46;;;;;;;8.45;3.92;;;;;;;;;;4921644;29;20055;-72
2022/03/28 02:07:17;;;;;;;12.70;4.30;;;;;;;;;;4921700;29;20063;-72
2022/03/28 02:09:48;;;;;;;11.93;4.47;;;;;;;;;;4921904;29;20059;-72
2022/03/28 02:12:18;;;;;;;10.75;4.32;;;;;;;;;;4926392;29;20482;-73
2022/03/28 02:14:49;;;;;;;14.38;5.28;;;;;;;;;;4919090;29;20075;-72
2022/03/28 02:17:20;;;;;;;11.27;4.40;;;;;;;;;;4918614;29;20043;-74
2022/03/28 02:19:50;;;;;;;12.60;4.03;;;;;;;;;;4941117;28;20051;-72
2022/03/28 02:22:21;;;;;;;12.30;3.72;;;;;;;;;;4955235;28;20055;-72
2022/03/28 02:24:52;;;;;;;12.07;3.92;;;;;;;;;;4942715;28;20573;-73
2022/03/28 02:27:23;;;;;;;12.05;5.25;;;;;;;;;;4931967;29;20461;-72
2022/03/28 02:29:54;;;;;;;8.82;4.03;;;;;;;;;;4943439;29;20062;-73
2022/03/28 02:32:24;;;;;;;11.55;4.88;;;;;;;;;;4970835;28;20411;-73
2022/03/28 02:34:55;;;;;;;10.27;4.05;;;;;;;;;;4947287;28;20059;-73
2022/03/28 02:37:26;;;;;;;9.88;3.78;;;;;;;;;;4982744;28;20066;-73
2022/03/28 02:39:57;;;;;;;14.70;4.13;;;;;;;;;;4982091;28;20054;-73
2022/03/28 02:42:29;;;;;;;9.70;3.90;;;;;;;;;;4976340;28;20050;-73
2022/03/28 02:45:00;;;;;;;16.08;5.22;;;;;;;;;;4972517;28;20047;-72
2022/03/28 02:47:30;;;;;;;16.92;4.80;;;;;;;;;;4972250;28;20418;-72
2022/03/28 02:50:01;;;;;;;11.07;4.47;;;;;;;;;;4982283;28;20584;-74
2022/03/28 02:52:32;;;;;;;11.10;4.18;;;;;;;;;;4940406;28;20054;-72
2022/03/28 02:55:03;;;;;;;11.60;4.45;;;;;;;;;;4921153;29;20063;-72
2022/03/28 02:57:33;;;;;;;12.18;4.70;;;;;;;;;;4937738;29;20052;-73
2022/03/28 03:00:10;;;;;;;8.27;3.85;;;;;;;;;;4933023;28;20063;-74
2022/03/28 03:02:43;;;;;;;8.95;4.00;;;;;;;;;;4914868;29;20757;-73
2022/03/28 03:05:15;;;;;;;13.23;3.50;;;;;;;;;;4915298;29;20067;-73
2022/03/28 03:07:48;;;;;;;8.20;3.47;;;;;;;;;;4915483;29;20052;-73
2022/03/28 03:10:18;;;;;;;12.82;4.30;;;;;;;;;;4915379;29;20067;-73
2022/03/28 03:12:49;;;;;;;11.85;3.83;;;;;;;;;;4915395;29;20056;-73
2022/03/28 03:15:20;;;;;;;10.35;4.28;;;;;;;;;;4942457;28;20063;-73
2022/03/28 03:17:51;;;;;;;13.40;4.45;;;;;;;;;;4933909;29;20048;-74
2022/03/28 03:20:21;;;;;;;12.65;4.38;;;;;;;;;;4949993;28;20056;-74
2022/03/28 03:22:52;;;;;;;12.52;4.38;;;;;;;;;;4933706;29;20067;-73
2022/03/28 03:25:23;;;;;;;9.98;4.28;;;;;;;;;;4914863;29;20378;-73
2022/03/28 03:27:53;;;;;;;16.13;4.68;;;;;;;;;;4926403;29;20064;-73
2022/03/28 03:30:24;;;;;;;9.63;3.65;;;;;;;;;;4956411;28;20051;-73
2022/03/28 03:32:55;;;;;;;11.65;4.60;;;;;;;;;;4913208;29;20415;-73
2022/03/28 03:35:26;;;;;;;9.45;4.00;;;;;;;;;;4921232;29;20055;-74
2022/03/28 03:37:56;;;;;;;9.88;4.20;;;;;;;;;;4937562;29;20059;-73
2022/03/28 03:40:26;;;;;;;12.10;4.20;;;;;;;;;;4914491;29;20520;-73
2022/03/28 03:42:57;;;;;;;14.40;4.38;;;;;;;;;;4951626;28;20062;-73
2022/03/28 03:45:28;;;;;;;8.73;4.10;;;;;;;;;;4920702;28;20066;-73
2022/03/28 03:47:58;;;;;;;12.20;4.13;;;;;;;;;;4952242;28;20051;-73
2022/03/28 03:50:29;;;;;;;10.50;4.25;;;;;;;;;;4952526;28;20530;-72
2022/03/28 03:53:00;;;;;;;9.55;4.07;;;;;;;;;;4952645;28;20485;-73
2022/03/28 03:55:30;;;;;;;11.88;4.45;;;;;;;;;;4952652;28;20070;-72
2022/03/28 03:58:01;;;;;;;10.30;4.43;;;;;;;;;;4952563;28;20062;-72
2022/03/28 04:00:31;;;;;;;13.40;3.67;;;;;;;;;;4952876;28;20070;-73
2022/03/28 04:03:03;;;;;;;9.02;3.90;;;;;;;;;;4971361;28;20102;-72
2022/03/28 04:05:37;;;;;;;8.18;3.45;;;;;;;;;;4959130;28;20050;-73
2022/03/28 04:08:08;;;;;;;9.80;3.20;;;;;;;;;;5011849;28;20068;-73
2022/03/28 04:10:39;;;;;;;6.80;2.50;;;;;;;;;;5010339;28;20165;-73
2022/03/28 04:13:14;;;;;;;8.55;3.47;;;;;;;;;;4977640;28;20755;-72
2022/03/28 04:15:45;;;;;;;5.53;2.80;;;;;;;;;;5010356;28;20560;-72
2022/03/28 04:18:16;;;;;;;8.25;3.03;;;;;;;;;;4990620;28;20042;-72
2022/03/28 04:20:46;;;;;;;9.88;3.47;;;;;;;;;;4990949;28;20062;-72
2022/03/28 04:23:16;;;;;;;10.57;3.40;;;;;;;;;;4942366;28;20097;-72
2022/03/28 04:25:47;;;;;;;8.75;3.45;;;;;;;;;;4971079;28;20055;-72
2022/03/28 04:28:19;;;;;;;7.28;3.10;;;;;;;;;;4971415;28;20059;-72
2022/03/28 04:30:51;;;;;;;9.13;3.33;;;;;;;;;;4970984;28;20039;-72
2022/03/28 04:33:22;;;;;;;8.35;2.97;;;;;;;;;;4970876;28;20526;-72
2022/03/28 04:35:52;;;;;;;8.95;3.13;;;;;;;;;;4955287;28;20055;-73
2022/03/28 04:38:25;;;;;;;8.60;3.20;;;;;;;;;;4951710;28;20070;-74
2022/03/28 04:40:55;;;;;;;8.00;3.38;;;;;;;;;;4913499;29;20126;-74
2022/03/28 04:43:26;;;;;;;9.95;3.13;;;;;;;;;;4894089;29;20045;-74
2022/03/28 04:45:56;;;;;;;7.80;3.15;;;;;;;;;;4875862;29;20413;-74
2022/03/28 04:48:27;;;;;;;9.05;3.03;;;;;;;;;;4875938;29;20068;-74
2022/03/28 04:50:58;;;;;;;6.25;2.50;;;;;;;;;;4876103;29;20060;-74
2022/03/28 04:53:28;;;;;;;6.47;2.80;;;;;;;;;;4810582;29;20557;-73
2022/03/28 04:55:59;;;;;;;9.05;3.00;;;;;;;;;;4857856;29;20072;-74
2022/03/28 04:58:30;;;;;;;12.15;3.33;;;;;;;;;;4844897;29;20067;-73
2022/03/28 05:01:00;;;;;;;6.80;3.10;;;;;;;;;;4875736;29;20060;-73
2022/03/28 05:03:31;;;;;;;10.13;3.38;;;;;;;;;;4885388;29;20405;-74
2022/03/28 05:06:02;;;;;;;6.07;2.55;;;;;;;;;;4894863;29;20068;-74
2022/03/28 05:08:33;;;;;;;7.68;3.20;;;;;;;;;;4903171;29;20631;-73
2022/03/28 05:11:03;;;;;;;7.65;2.67;;;;;;;;;;4904010;29;20089;-73
2022/03/28 05:13:33;;;;;;;7.30;2.50;;;;;;;;;;4913077;29;20067;-74
2022/03/28 05:16:04;;;;;;;8.23;3.50;;;;;;;;;;4913233;29;20416;-75
2022/03/28 05:18:35;;;;;;;9.18;3.47;;;;;;;;;;4932345;29;20059;-73
2022/03/28 05:21:05;;;;;;;9.27;3.05;;;;;;;;;;4989634;28;20052;-74
2022/03/28 05:23:36;;;;;;;4.60;2.47;;;;;;;;;;5029392;28;20559;-74
2022/03/28 05:26:07;;;;;;;8.02;2.80;;;;;;;;;;5029206;28;20049;-74
2022/03/28 05:28:38;;;;;;;7.30;3.10;;;;;;;;;;4960615;28;20049;-74
2022/03/28 05:31:08;;;;;;;7.43;2.78;;;;;;;;;;5009200;28;20054;-74
2022/03/28 05:33:39;;;;;;;6.85;2.85;;;;;;;;;;5009356;28;20058;-74
2022/03/28 05:36:10;;;;;;;6.70;2.72;;;;;;;;;;4989544;28;20050;-75
2022/03/28 05:38:42;;;;;;;6.93;2.83;;;;;;;;;;4957309;28;20054;-72
2022/03/28 05:41:13;;;;;;;7.25;3.05;;;;;;;;;;4989801;28;20058;-75
2022/03/28 05:43:43;;;;;;;8.05;3.97;;;;;;;;;;4973718;28;20050;-73
2022/03/28 05:46:14;;;;;;;4.75;2.42;;;;;;;;;;4957300;28;20438;-75
2022/03/28 05:48:45;;;;;;;6.90;3.08;;;;;;;;;;4989720;28;20054;-74
2022/03/28 05:51:15;;;;;;;6.43;3.15;;;;;;;;;;4915644;29;20067;-76
2022/03/28 05:53:46;;;;;;;8.13;2.95;;;;;;;;;;4931563;29;20067;-75
2022/03/28 05:56:16;;;;;;;12.63;3.13;;;;;;;;;;4931715;28;20067;-76
2022/03/28 05:58:47;;;;;;;10.93;2.45;;;;;;;;;;4931813;29;20052;-75
2022/03/28 06:01:18;;;;;;;6.57;2.63;;;;;;;;;;4877795;29;20057;-75
2022/03/28 06:03:48;;;;;;;7.10;2.72;;;;;;;;;;4893247;29;20449;-75
2022/03/28 06:06:19;;;;;;;7.65;2.55;;;;;;;;;;4914734;29;20070;-75
2022/03/28 06:08:49;;;;;;;7.75;2.63;;;;;;;;;;4920012;29;20055;-75
2022/03/28 06:11:22;;;;;;;9.18;3.40;;;;;;;;;;4935561;29;20056;-75
2022/03/28 06:13:53;;;;;;;6.80;2.40;;;;;;;;;;4945937;28;20075;-76
2022/03/28 06:16:25;;;;;;;7.57;2.90;;;;;;;;;;4954241;28;20430;-74
2022/03/28 06:18:57;;;;;;;10.23;2.90;;;;;;;;;;4954400;28;20047;-75
2022/03/28 06:21:30;;;;;;;5.72;2.78;;;;;;;;;;4954628;28;20058;-74
2022/03/28 06:24:07;;;;;;;;;;;;;;;;;;4954706;28;20120;-74
2022/03/28 06:26:38;;;;;;;7.57;2.75;;;;;;;;;;4954505;28;19929;-74
2022/03/28 06:29:10;;;;;;;8.07;2.47;;;;;;;;;;4977772;28;20058;-74
2022/03/28 06:31:41;;;;;;;6.32;2.88;;;;;;;;;;4973069;28;20047;-74
2022/03/28 06:34:16;;;;;;;5.22;2.47;;;;;;;;;;4941302;28;20066;-73
2022/03/28 06:36:47;;;;;;;4.65;2.33;;;;;;;;;;4953929;28;20050;-73
2022/03/28 06:39:18;;;;;;;5.47;3.33;;;;;;;;;;4979052;28;20064;-73
2022/03/28 06:41:48;;;;;;;6.57;2.78;;;;;;;;;;4992875;28;20065;-73
2022/03/28 06:44:20;;;;;;;5.20;2.15;;;;;;;;;;4992542;28;20058;-73
2022/03/28 06:46:51;;;;;;;4.93;2.50;;;;;;;;;;4992687;28;20065;-73
2022/03/28 06:49:21;;;;;;;5.93;2.13;;;;;;;;;;4953598;28;20066;-73
2022/03/28 06:51:52;;;;;;;4.10;1.90;;;;;;;;;;4934539;29;20066;-73
2022/03/28 06:54:23;;;;;;;4.35;2.13;;;;;;;;;;4919210;29;20063;-73
2022/03/28 06:56:53;;;;;;;5.00;2.28;;;;;;;;;;4941023;29;20051;-74
2022/03/28 06:59:24;;;;;;;5.45;2.30;;;;;;;;;;4934539;29;20055;-73
2022/03/28 07:01:54;;;;;;;6.57;2.47;;;;;;;;;;4934453;29;20062;-73
2022/03/28 07:04:25;;;;;;;4.97;2.03;;;;;;;;;;4933922;29;20058;-72
2022/03/28 07:06:56;;;;;;;4.38;2.28;;;;;;;;;;4950213;29;20067;-73
2022/03/28 07:09:27;;;;;;;8.05;2.30;;;;;;;;;;4944572;29;20547;-73
2022/03/28 07:11:59;;;;;;;6.05;2.13;;;;;;;;;;4953435;29;20047;-73
2022/03/28 07:14:29;;;;;;;4.20;2.10;;;;;;;;;;4963477;28;20511;-73
2022/03/28 07:17:01;;;;;;;4.95;1.95;;;;;;;;;;4972099;28;20526;-73
2022/03/28 07:19:32;;;;;;;6.55;2.30;;;;;;;;;;4923944;28;20058;-74
2022/03/28 07:22:03;;;;;;;5.57;2.03;;;;;;;;;;4914287;29;20052;-74
2022/03/28 07:24:34;;;;;;;5.82;2.70;;;;;;;;;;4933637;29;20048;-74
2022/03/28 07:27:04;;;;;;;7.47;2.60;;;;;;;;;;4928396;29;20447;-73
2022/03/28 07:29:35;;;;;;;6.43;2.42;;;;;;;;;;4933316;29;20055;-73
2022/03/28 07:32:06;;;;;;;3.90;2.15;;;;;;;;;;4934061;29;20443;-74
2022/03/28 07:34:38;;;;;;;6.95;2.35;;;;;;;;;;4933576;29;20067;-74
2022/03/28 07:37:10;;;;;;;7.63;2.38;;;;;;;;;;4933859;29;20056;-73
2022/03/28 07:39:40;;;;;;;4.65;2.42;;;;;;;;;;4934153;29;20052;-73
2022/03/28 07:42:13;;;;;;;6.10;2.45;;;;;;;;;;4933940;29;20058;-74
2022/03/28 07:44:44;;;;;;;11.82;2.80;;;;;;;;;;4933625;29;20044;-72
2022/03/28 07:47:21;;;;;;;4.60;2.35;;;;;;;;;;4934004;29;20055;-74
2022/03/28 07:49:53;;;;;;;6.55;2.13;;;;;;;;;;4933790;29;20064;-74
2022/03/28 07:52:25;;;;;;;7.57;2.50;;;;;;;;;;4933623;29;20059;-74
2022/03/28 07:54:55;;;;;;;4.88;2.42;;;;;;;;;;4957378;28;20066;-74
2022/03/28 07:57:27;;;;;;;7.55;2.33;;;;;;;;;;4971967;28;20047;-74
2022/03/28 07:59:58;;;;;;;5.90;2.13;;;;;;;;;;4983374;28;20050;-74
2022/03/28 08:02:48;;;;;;;;;;;;;;;;;;5006072;28;20080;-74
2022/03/28 08:05:19;;;;;;;5.82;2.08;;;;;;;;;;5010797;28;19928;-74
2022/03/28 08:07:51;;;;;;;4.30;2.47;;;;;;;;;;5041427;28;20045;-74
2022/03/28 08:10:23;;;;;;;6.13;2.42;;;;;;;;;;5050540;28;20060;-74
2022/03/28 08:12:54;;;;;;;6.32;2.25;;;;;;;;;;5050497;28;20492;-74
2022/03/28 08:15:24;;;;;;;7.28;2.22;;;;;;;;;;5050618;28;20057;-72
2022/03/28 08:17:59;;;;;;;4.28;2.30;;;;;;;;;;5010658;28;20391;-73
2022/03/28 08:20:29;;;;;;;6.65;2.42;;;;;;;;;;5010455;28;20073;-74
2022/03/28 08:23:00;;;;;;;4.35;2.05;;;;;;;;;;5010770;28;20058;-72
2022/03/28 08:25:31;;;;;;;6.68;2.65;;;;;;;;;;5010490;28;20050;-74
2022/03/28 08:28:02;;;;;;;5.50;2.47;;;;;;;;;;4977844;28;20061;-73
2022/03/28 08:30:34;;;;;;;5.20;2.67;;;;;;;;;;5006184;28;20711;-75
2022/03/28 08:33:05;;;;;;;6.20;3.05;;;;;;;;;;4990841;28;20054;-74
2022/03/28 08:35:37;;;;;;;12.68;3.00;;;;;;;;;;5009753;28;20054;-75
2022/03/28 08:38:07;;;;;;;6.80;2.85;;;;;;;;;;5010172;28;20053;-73
2022/03/28 08:40:43;;;;;;;6.60;3.08;;;;;;;;;;5010145;28;20061;-74
2022/03/28 08:43:18;;;;;;;5.68;2.60;;;;;;;;;;5009868;28;20041;-73
2022/03/28 08:45:50;;;;;;;6.72;2.85;;;;;;;;;;4961643;28;20054;-75
2022/03/28 08:48:21;;;;;;;6.07;3.47;;;;;;;;;;4938719;28;20628;-75
2022/03/28 08:50:51;;;;;;;8.25;3.28;;;;;;;;;;4970993;28;20573;-75
2022/03/28 08:53:22;;;;;;;11.27;3.45;;;;;;;;;;4955051;28;20058;-76
2022/03/28 08:55:52;;;;;;;8.10;2.85;;;;;;;;;;4970605;28;20073;-73
2022/03/28 08:58:22;;;;;;;6.68;2.53;;;;;;;;;;4971025;28;20055;-76
2022/03/28 09:00:54;;;;;;;7.53;2.72;;;;;;;;;;4989966;28;20450;-75
2022/03/28 09:03:40;;;;;;;7.43;2.85;;;;;;;;;;4989862;28;20173;-75
2022/03/28 09:06:46;;;;;;;6.68;2.53;;;;;;;;;;4931775;29;20059;-75
2022/03/28 09:09:28;;;;;;;6.88;2.70;;;;;;;;;;4825630;29;20070;-75
2022/03/28 09:12:08;;;;;;;7.30;2.95;;;;;;;;;;4838350;29;20057;-74
2022/03/28 09:14:40;;;;;;;6.88;2.70;;;;;;;;;;4838707;29;20065;-75
2022/03/28 09:17:15;;;;;;;5.85;2.65;;;;;;;;;;4856722;29;20061;-75
2022/03/28 09:19:51;;;;;;;7.85;3.10;;;;;;;;;;4857148;29;20243;-75
2022/03/28 09:22:28;;;;;;;6.90;2.92;;;;;;;;;;4857044;29;20529;-72
2022/03/28 09:25:04;;;;;;;6.97;3.13;;;;;;;;;;4878021;29;20049;-75
2022/03/28 09:27:37;;;;;;;13.65;3.13;;;;;;;;;;4909432;29;20069;-75
2022/03/28 09:30:16;;;;;;;9.88;3.15;;;;;;;;;;4894034;29;20067;-75
2022/03/28 09:32:52;;;;;;;10.13;3.30;;;;;;;;;;4915991;29;20389;-75
2022/03/28 09:35:26;;;;;;;9.18;2.97;;;;;;;;;;4929350;29;20055;-74
2022/03/28 09:38:08;;;;;;;7.07;3.38;;;;;;;;;;4918796;29;20053;-76
2022/03/28 09:40:41;;;;;;;7.43;3.20;;;;;;;;;;4905793;29;20048;-75
2022/03/28 09:43:23;;;;;;;7.30;2.95;;;;;;;;;;4925593;28;20039;-76
2022/03/28 09:45:55;;;;;;;11.30;3.20;;;;;;;;;;4924712;28;20538;-76
2022/03/28 09:48:29;;;;;;;7.07;3.30;;;;;;;;;;4969335;28;20098;-75
2022/03/28 09:51:05;;;;;;;8.10;3.15;;;;;;;;;;4912217;29;20052;-73
2022/03/28 09:53:39;;;;;;;11.98;2.97;;;;;;;;;;4894585;29;20053;-74
2022/03/28 09:56:11;;;;;;;8.75;3.17;;;;;;;;;;4937610;28;20054;-75
2022/03/28 09:58:50;;;;;;;9.95;3.35;;;;;;;;;;4965542;28;20062;-74
2022/03/28 10:01:23;;;;;;;8.90;3.42;;;;;;;;;;4930511;29;20621;-74
2022/03/28 10:04:03;;;;;;;7.28;3.35;;;;;;;;;;4932553;29;20519;-75
2022/03/28 10:06:37;;;;;;;6.38;3.53;;;;;;;;;;4942846;29;20051;-74
2022/03/28 10:09:09;;;;;;;11.10;3.85;;;;;;;;;;4919365;29;20060;-75
2022/03/28 10:11:40;;;;;;;11.45;3.63;;;;;;;;;;4911930;29;20044;-75
2022/03/28 10:14:11;;;;;;;6.57;3.10;;;;;;;;;;4912241;29;20516;-74
2022/03/28 10:16:42;;;;;;;8.02;3.58;;;;;;;;;;4912014;29;20064;-74
2022/03/28 10:19:15;;;;;;;10.13;3.13;;;;;;;;;;4893214;29;20074;-75
2022/03/28 10:21:47;;;;;;;12.18;3.33;;;;;;;;;;4892875;29;20045;-75
2022/03/28 10:24:24;;;;;;;9.77;3.60;;;;;;;;;;4893194;29;20056;-75
2022/03/28 10:26:58;;;;;;;8.65;3.85;;;;;;;;;;4877239;29;20060;-75
2022/03/28 10:30:09;;;;;;;9.43;3.58;;;;;;;;;;4874822;29;20065;-75
2022/03/28 10:32:41;;;;;;;7.65;3.47;;;;;;;;;;4877635;29;20547;-75
2022/03/28 10:35:16;;;;;;;10.35;3.60;;;;;;;;;;4893373;29;20057;-75
2022/03/28 10:37:48;;;;;;;11.27;3.38;;;;;;;;;;4911729;29;20056;-74
2022/03/28 10:40:35;;;;;;;10.98;3.38;;;;;;;;;;4911877;29;20513;-74
2022/03/28 10:43:14;;;;;;;13.88;3.40;;;;;;;;;;4893817;29;20064;-75
2022/03/28 10:46:09;;;;;;;13.57;3.30;;;;;;;;;;4880827;29;20055;-74
2022/03/28 10:48:59;;;;;;;11.55;3.40;;;;;;;;;;4889271;29;20051;-74
2022/03/28 10:51:31;;;;;;;8.88;3.38;;;;;;;;;;4949927;28;20047;-75
2022/03/28 10:54:05;;;;;;;8.10;3.10;;;;;;;;;;4934347;29;20074;-75
2022/03/28 10:56:45;;;;;;;9.00;3.65;;;;;;;;;;4926496;29;20048;-73
2022/03/28 10:59:21;;;;;;;9.05;3.67;;;;;;;;;;4910198;29;20071;-73
2022/03/28 11:01:52;;;;;;;11.57;4.00;;;;;;;;;;4924972;29;20064;-73
2022/03/28 11:04:23;;;;;;;8.25;3.45;;;;;;;;;;4949376;29;20055;-73
2022/03/28 11:07:06;;;;;;;11.02;3.70;;;;;;;;;;4934201;29;20060;-74
2022/03/28 11:10:06;;;;;;;20.92;4.38;;;;;;;;;;4946221;29;20060;-74
2022/03/28 11:12:39;;;;;;;9.60;3.55;;;;;;;;;;4939869;28;20204;-74
2022/03/28 11:15:18;;;;;;;7.30;4.30;;;;;;;;;;4972715;28;20487;-72
2022/03/28 11:18:27;;;;;;;6.60;3.30;;;;;;;;;;5011847;28;20050;-73
2022/03/28 11:20:57;;;;;;;11.27;3.65;;;;;;;;;;4992213;28;20055;-73
2022/03/28 11:23:28;;;;;;;11.02;4.43;;;;;;;;;;4991745;28;20058;-73
2022/03/28 11:26:00;;;;;;;10.98;5.15;;;;;;;;;;4941954;28;20042;-73
2022/03/28 11:28:33;;;;;;;15.30;5.03;;;;;;;;;;4990015;28;20053;-73
2022/03/28 11:31:11;;;;;;;12.95;5.57;;;;;;;;;;4997129;28;20410;-72
2022/03/28 11:33:46;;;;;;;13.25;5.35;;;;;;;;;;4978728;28;20058;-72
2022/03/28 11:36:20;;;;;;;13.57;5.10;;;;;;;;;;4991650;28;20057;-73
2022/03/28 11:38:55;;;;;;;9.07;4.53;;;;;;;;;;4975970;28;20149;-73
2022/03/28 11:41:26;;;;;;;9.18;4.63;;;;;;;;;;4950903;28;20054;-72
2022/03/28 11:43:58;;;;;;;16.55;5.68;;;;;;;;;;5011389;28;20053;-72
2022/03/28 11:46:32;;;;;;;12.13;3.25;;;;;;;;;;4991241;28;20058;-73
2022/03/28 11:49:06;;;;;;;10.43;3.92;;;;;;;;;;4991706;28;20537;-73
2022/03/28 11:51:39;;;;;;;10.05;3.40;;;;;;;;;;4991181;28;20076;-73
2022/03/28 11:54:16;;;;;;;10.77;4.28;;;;;;;;;;4991667;28;20062;-72
2022/03/28 11:59:41;;;;;;;5.63;3.58;;;;;;;;;;4915503;29;20420;-72
2022/03/28 12:02:12;;;;;;;5.53;3.10;;;;;;;;;;4914341;29;20060;-71
2022/03/28 12:04:47;;;;;;;11.50;3.65;;;;;;;;;;4928935;29;20055;-71
2022/03/28 12:07:17;;;;;;;6.78;2.75;;;;;;;;;;4929437;29;20056;-72
2022/03/28 12:09:48;;;;;;;6.30;2.40;;;;;;;;;;4932948;29;20059;-69
2022/03/28 12:12:19;;;;;;;5.20;3.38;;;;;;;;;;4951856;29;20549;-71
2022/03/28 12:14:50;;;;;;;4.60;3.05;;;;;;;;;;4952089;29;20059;-70
2022/03/28 12:17:30;;;;;;;4.72;2.35;;;;;;;;;;4952097;29;20530;-70
2022/03/28 12:20:03;;;;;;;8.52;2.92;;;;;;;;;;4986289;28;20061;-70
2022/03/28 12:22:47;;;;;;;6.90;2.90;;;;;;;;;;4955150;28;20050;-70
2022/03/28 12:25:35;;;;;;;5.43;3.03;;;;;;;;;;4937133;29;20062;-71
2022/03/28 12:28:17;;;;;;;5.50;3.00;;;;;;;;;;4917943;28;20173;-70
2022/03/28 12:30:52;;;;;;;5.97;3.80;;;;;;;;;;4990483;28;20058;-70
2022/03/28 12:33:40;;;;;;;6.82;4.43;;;;;;;;;;4974618;28;20058;-70
2022/03/28 12:36:22;;;;;;;8.18;3.88;;;;;;;;;;4951423;29;20530;-71
2022/03/28 12:39:00;;;;;;;7.65;4.95;;;;;;;;;;4939215;29;20067;-70
2022/03/28 12:41:31;;;;;;;8.35;5.05;;;;;;;;;;4929472;29;20536;-71
2022/03/28 12:44:04;;;;;;;10.27;5.47;;;;;;;;;;4959240;28;20050;-70
2022/03/28 12:46:36;;;;;;;9.35;5.97;;;;;;;;;;4925920;29;20518;-71
2022/03/28 12:49:13;;;;;;;9.95;6.03;;;;;;;;;;4909884;29;20053;-71
2022/03/28 12:51:45;;;;;;;10.55;7.00;;;;;;;;;;4894478;29;20173;-70
2022/03/28 12:54:23;;;;;;;11.95;6.20;;;;;;;;;;4894577;29;20053;-70
2022/03/28 12:56:59;;;;;;;11.00;5.78;;;;;;;;;;4907272;29;20064;-71
2022/03/28 12:59:32;;;;;;;18.80;7.80;;;;;;;;;;4927932;28;20404;-72
2022/03/28 13:02:13;;;;;;;10.48;6.88;;;;;;;;;;4901960;29;20063;-71
2022/03/28 13:04:53;;;;;;;12.25;6.28;;;;;;;;;;4903320;29;20052;-71
2022/03/28 13:07:27;;;;;;;14.15;6.40;;;;;;;;;;4901551;29;20060;-70
2022/03/28 13:10:19;;;;;;;11.20;6.45;;;;;;;;;;4901713;29;20161;-70
2022/03/28 13:12:57;;;;;;;10.27;5.90;;;;;;;;;;4902700;29;20044;-69
2022/03/28 13:15:37;;;;;;;13.68;7.38;;;;;;;;;;4913101;29;20458;-70
2022/03/28 13:18:13;;;;;;;11.38;5.82;;;;;;;;;;4895419;29;20047;-70
2022/03/28 13:20:47;;;;;;;10.50;5.60;;;;;;;;;;4895664;29;20513;-70
2022/03/28 13:23:28;;;;;;;12.38;6.72;;;;;;;;;;4916865;29;20229;-70
2022/03/28 13:26:14;;;;;;;10.20;5.45;;;;;;;;;;4950865;29;20062;-70
2022/03/28 13:28:47;;;;;;;15.00;5.85;;;;;;;;;;4950609;29;20062;-70
2022/03/28 13:31:18;;;;;;;12.70;5.50;;;;;;;;;;4934815;29;20055;-70
2022/03/28 13:33:50;;;;;;;11.27;5.68;;;;;;;;;;4950602;29;20055;-70
2022/03/28 13:36:21;;;;;;;11.05;5.35;;;;;;;;;;4937723;28;20110;-70
2022/03/28 13:38:51;;;;;;;11.07;4.30;;;;;;;;;;4947899;29;20066;-69
2022/03/28 13:41:22;;;;;;;9.10;3.67;;;;;;;;;;4934593;28;20059;-70
2022/03/28 13:43:52;;;;;;;6.50;3.67;;;;;;;;;;4922536;28;20095;-71
2022/03/28 13:46:23;;;;;;;8.25;4.47;;;;;;;;;;4970130;28;20054;-71
2022/03/28 13:48:55;;;;;;;8.35;3.65;;;;;;;;;;4989482;28;20050;-71
2022/03/28 13:51:29;;;;;;;;;;;;;;;;;;4973636;28;20077;-70
2022/03/28 13:54:00;;;;;;;9.82;4.15;;;;;;;;;;4989474;28;19921;-70
2022/03/28 13:56:32;;;;;;;;;;;;;;;;;;4989735;28;20744;-71
2022/03/28 13:59:03;;;;;;;11.90;4.40;;;;;;;;;;4994656;28;19928;-71
2022/03/28 14:01:35;;;;;;;7.60;4.22;;;;;;;;;;5017870;28;20057;-71
2022/03/28 14:04:08;;;;;;;8.57;3.00;;;;;;;;;;5017807;28;20167;-68
2022/03/28 14:06:39;;;;;;;8.40;2.35;;;;;;;;;;4996262;28;20042;-68
2022/03/28 14:09:10;;;;;;;5.18;2.50;;;;;;;;;;5007920;28;20060;-68
2022/03/28 14:11:41;;;;;;;5.05;2.28;;;;;;;;;;5008883;28;20537;-69
2022/03/28 14:14:11;;;;;;;4.00;2.03;;;;;;;;;;4969486;28;20057;-69
2022/03/28 14:16:43;;;;;;;7.28;2.60;;;;;;;;;;4969841;28;20077;-68
2022/03/28 14:19:16;;;;;;;7.65;2.30;;;;;;;;;;4969649;28;20067;-69
2022/03/28 14:21:46;;;;;;;4.40;2.22;;;;;;;;;;4969696;28;20055;-66
2022/03/28 14:24:19;;;;;;;3.33;1.75;;;;;;;;;;4969664;28;20050;-67
2022/03/28 14:26:49;;;;;;;5.35;2.10;;;;;;;;;;4966896;28;20057;-68
2022/03/28 14:29:20;;;;;;;7.30;2.60;;;;;;;;;;4961521;28;20054;-69
2022/03/28 14:31:52;;;;;;;4.60;2.22;;;;;;;;;;4964429;28;20074;-69
2022/03/28 14:34:23;;;;;;;5.15;2.33;;;;;;;;;;4922810;29;20052;-70
2022/03/28 14:36:53;;;;;;;4.82;2.22;;;;;;;;;;4917671;29;20052;-68
2022/03/28 14:39:24;;;;;;;4.93;2.30;;;;;;;;;;4920388;29;20064;-68
2022/03/28 14:41:55;;;;;;;6.72;2.67;;;;;;;;;;4915905;29;20059;-69
2022/03/28 14:44:25;;;;;;;7.32;2.13;;;;;;;;;;4915438;29;20063;-68
2022/03/28 14:47:01;;;;;;;4.90;2.17;;;;;;;;;;4936401;29;20797;-68
2022/03/28 14:49:33;;;;;;;5.63;2.00;;;;;;;;;;4972783;28;20098;-69
2022/03/28 14:52:05;;;;;;;6.38;2.40;;;;;;;;;;4984451;28;20058;-67
2022/03/28 14:54:37;;;;;;;8.95;2.53;;;;;;;;;;5010716;28;20413;-67
2022/03/28 14:57:14;;;;;;;5.18;2.50;;;;;;;;;;5031889;28;20543;-67
2022/03/28 14:59:45;;;;;;;6.60;2.08;;;;;;;;;;5015627;28;20219;-68
2022/03/28 15:02:15;;;;;;;6.50;1.95;;;;;;;;;;5031474;28;20725;-67
2022/03/28 15:04:47;;;;;;;5.07;2.10;;;;;;;;;;5031109;28;20061;-67
2022/03/28 15:07:23;;;;;;;;;;;;;;;;;;4983160;28;20429;-67
2022/03/28 15:09:53;;;;;;;4.15;1.75;;;;;;;;;;5014836;28;19921;-66
2022/03/28 15:12:24;;;;;;;5.03;2.33;;;;;;;;;;5077819;28;20826;-67
2022/03/28 15:14:56;;;;;;;3.33;1.83;;;;;;;;;;5051132;28;20053;-67
2022/03/28 15:17:27;;;;;;;4.65;2.25;;;;;;;;;;5051641;28;20181;-66
2022/03/28 15:19:58;;;;;;;5.45;2.28;;;;;;;;;;5030893;28;20531;-65